Data for 08/07/2010

Time Sea-Level Adjusted Pressure Absolute Pressure Temperature Relative Humidity Dew Point   
(mb) (inHg) (mb) (inHg) (C) (F) (%) (C) (F)
00:05 1016 30 845 24.95 16.6 61.9 59 8.5 47.4
00:10 1016 30 845 24.95 16.5 61.8 59 8.6 47.4
00:15 1016 30 845 24.95 16.5 61.6 59 8.5 47.3
00:20 1016 30 845 24.95 16.4 61.5 59 8.5 47.4
00:25 1016 30 845 24.95 16.3 61.4 60 8.6 47.5
00:30 1016 30 845 24.95 16.2 61.1 61 8.8 47.9
00:35 1016 30 845 24.95 15.9 60.7 64 9.1 48.4
00:40 1016 30 845 24.95 15.6 60 64 8.8 47.8
00:45 1016 30 845 24.95 15.6 60.1 62 8.5 47.3
00:50 1016 30 845 24.95 15.8 60.4 62 8.7 47.6
00:55 1016 30 845 24.95 15.8 60.4 61 8.4 47.2
01:00 1016 30 845 24.95 15.9 60.7 61 8.4 47.1
01:05 1016 30 845 24.95 15.9 60.7 61 8.4 47.2
01:10 1016 30 845 24.95 15.9 60.7 60 8.2 46.8
01:15 1016 30 845 24.95 16 60.8 59 8.1 46.6
01:20 1016 30 845 24.95 16.2 61.1 59 8.2 46.7
01:25 1016 30 845 24.95 16.1 61 58 8 46.3
01:30 1016 30 845 24.95 16 60.8 60 8.2 46.7
01:35 1016 30 845 24.95 15.8 60.4 60 8.2 46.7
01:40 1016 30 845 24.95 15.6 60.1 62 8.3 47
01:45 1016 30 845 24.95 15.5 59.8 60 7.9 46.3
01:50 1016 30 845 24.95 15.6 60 61 8.1 46.5
01:55 1016 30 845 24.95 15.5 60 61 8.1 46.6
02:00 1016 30 845 24.95 15.4 59.8 61 8.1 46.6
02:05 1016 30 845 24.95 15.4 59.8 60 7.9 46.1
02:10 1016 30 845 24.95 15.5 59.9 60 7.9 46.2
02:15 1016 30 845 24.95 15.6 60.1 59 7.8 46
02:20 1016 30 845 24.95 15.7 60.2 60 8 46.3
02:25 1016 30 845 24.95 15.6 60.2 60 8 46.4
02:30 1016 30 845 24.95 15.6 60 61 8.1 46.6
02:35 1016 30 845 24.95 15.4 59.8 61 8.1 46.6
02:40 1016 30 845 24.95 15.3 59.5 65 8.7 47.6
02:45 1016 30 845 24.95 14.9 58.8 67 8.9 48
02:50 1016 30 845 24.95 14.4 58 69 8.8 47.8
02:55 1016 30 845 24.95 13.7 56.6 72 8.7 47.7
03:00 1016 30 845 24.95 13.4 56 74 8.8 47.8
03:05 1016 30 845 24.95 13.1 55.5 74 8.5 47.4
03:10 1016 30 845 24.95 13.3 55.9 71 8.1 46.6
03:15 1016 30 845 24.95 13.4 56.2 72 8.5 47.4
03:20 1016 30 845 24.95 13.1 55.5 74 8.5 47.4
03:25 1015 29.97 845 24.95 12.7 54.9 75 8.5 47.3
03:30 1015 29.97 845 24.95 12.5 54.6 75 8.2 46.8
03:35 1015 29.97 844 24.92 12.7 54.8 72 7.9 46.2
03:40 1015 29.97 844 24.92 13 55.5 71 8 46.3
03:45 1015 29.97 845 24.95 13.2 55.7 71 8 46.5
03:50 1015 29.97 845 24.95 13.3 55.9 72 8.3 46.9
03:55 1015 29.97 845 24.95 13.2 55.7 72 8.2 46.8
04:00 1015 29.97 845 24.95 13.2 55.8 72 8.4 47.1
04:05 1015 29.97 844 24.92 13.1 55.6 73 8.3 47
04:10 1015 29.97 845 24.95 13.1 55.6 72 8.3 46.9
04:15 1015 29.97 845 24.95 13.1 55.6 73 8.4 47.2
04:20 1015 29.97 845 24.95 13.1 55.5 73 8.3 47
04:25 1015 29.97 845 24.95 13.2 55.7 73 8.4 47.1
04:30 1016 30 845 24.95 13.2 55.8 73 8.6 47.4
04:35 1016 30 845 24.95 13.1 55.7 74 8.6 47.4
04:40 1016 30 845 24.95 13.1 55.5 74 8.5 47.4
04:45 1016 30 845 24.95 13.3 55.9 71 8.2 46.7
04:50 1016 30 845 24.95 13.4 56.1 72 8.6 47.5
04:55 1016 30 845 24.95 13 55.5 74 8.5 47.4
05:00 1016 30 845 24.95 12.8 55 75 8.5 47.3
05:05 1016 30 845 24.95 12.8 55 74 8.4 47.1
05:10 1016 30 845 24.95 12.9 55.3 72 8.1 46.6
05:15 1016 30 845 24.95 13.2 55.8 71 8.2 46.7
05:20 1016 30 845 24.95 13.2 55.7 71 8 46.4
05:25 1016 30 845 24.95 13.4 56 71 8.2 46.8
05:30 1016 30 846 24.98 13.1 55.6 72 8.3 47
05:35 1016 30 846 24.98 12.9 55.2 73 8.2 46.8
05:40 1016 30 846 24.98 12.7 54.8 72 7.8 46.1
05:45 1017 30.03 846 24.98 12.8 55 70 7.4 45.3
05:50 1017 30.03 846 24.98 13 55.4 71 7.8 46.1
05:55 1017 30.03 846 24.98 12.5 54.5 71 7.5 45.4
06:00 1017 30.03 846 24.98 12.3 54.2 72 7.5 45.4
06:05 1017 30.03 846 24.98 12.2 54 73 7.5 45.5
06:10 1017 30.03 846 24.98 12.3 54.1 70 7.1 44.7
06:15 1017 30.03 846 24.98 12.5 54.4 73 7.7 45.9
06:20 1017 30.03 846 24.98 12.1 53.9 75 7.8 46
06:25 1017 30.03 846 24.98 11.8 53.2 76 7.7 45.9
06:30 1017 30.03 846 24.98 11.7 53.1 75 7.5 45.6
06:35 1017 30.03 846 24.98 11.9 53.4 74 7.5 45.5
06:40 1016 30 846 24.98 12.1 53.8 73 7.5 45.5
06:45 1017 30.03 846 24.98 12.5 54.4 72 7.5 45.5
06:50 1017 30.03 846 24.98 12.6 54.8 71 7.6 45.7
06:55 1016 30 846 24.98 12.7 54.9 73 7.9 46.3
07:00 1016 30 846 24.98 12.7 54.9 72 7.8 46.1
07:05 1016 30 845 24.95 13.1 55.6 70 7.7 45.9
07:10 1016 30 845 24.95 13.5 56.3 69 7.9 46.3
07:15 1016 30 845 24.95 13.7 56.7 67 7.8 46.1
07:20 1016 30 845 24.95 14 57.1 65 7.6 45.6
07:25 1016 30 846 24.98 14.3 57.7 65 8 46.4
07:30 1016 30 846 24.98 14.7 58.4 63 7.8 46.1
07:35 1016 30 845 24.95 15.1 59.2 62 8 46.5
07:40 1016 30 845 24.95 15.3 59.6 61 8 46.4
07:45 1016 30 845 24.95 15.6 60.1 59 7.7 45.8
07:50 1016 30 845 24.95 15.9 60.6 62 8.7 47.7
07:55 1016 30 845 24.95 15.6 60.1 66 9.4 48.9
08:00 1016 30 845 24.95 15 58.9 69 9.3 48.7
08:05 1016 30 845 24.95 14.5 58.2 70 9.2 48.5
08:10 1016 30 845 24.95 14.4 57.8 70 9.1 48.3
08:15 1015 29.97 845 24.95 14.3 57.8 70 9.1 48.3
08:20 1015 29.97 845 24.95 14.4 57.9 69 8.9 48
08:25 1016 30 845 24.95 14.7 58.4 67 8.7 47.6
08:30 1016 30 845 24.95 15.1 59.2 65 8.6 47.5
08:35 1016 30 845 24.95 15.5 59.9 64 8.8 47.9
08:40 1016 30 845 24.95 15.5 59.9 67 9.5 49.1
08:45 1015 29.97 845 24.95 15.6 60 64 8.9 48
08:50 1015 29.97 845 24.95 15.7 60.2 64 8.8 47.9
08:55 1016 30 845 24.95 15.9 60.6 63 8.8 47.9
09:00 1016 30 845 24.95 16 60.7 64 9.3 48.7
09:05 1016 30 845 24.95 16 60.8 62 8.7 47.7
09:10 1016 30 845 24.95 16.2 61.1 60 8.5 47.3
09:15 1016 30 845 24.95 16.5 61.7 58 8.2 46.8
09:20 1016 30 845 24.95 16.8 62.2 58 8.5 47.2
09:25 1016 30 845 24.95 17.1 62.8 57 8.7 47.7
09:30 1016 30 845 24.95 17.2 63 60 9.5 49.1
09:35 1016 30 845 24.95 17.2 63 58 8.9 48.1
09:40 1016 30 845 24.95 17.3 63.2 57 8.8 47.8
09:45 1016 30 845 24.95 17.5 63.4 57 9 48.1
09:50 1016 30 845 24.95 17.5 63.5 58 9.3 48.8
09:55 1016 30 845 24.95 17.7 63.9 58 9.4 49
10:00 1016 30 845 24.95 18.1 64.6 55 8.9 48.1
10:05 1016 30 845 24.95 18.8 65.8 53 9.2 48.5
10:10 1016 30 845 24.95 19.6 67.3 49 8.8 47.8
10:15 1016 30 845 24.95 20.7 69.2 43 7.8 46
10:20 1016 30 845 24.95 21.4 70.5 41 7.9 46.2
10:25 1016 30 845 24.95 22 71.7 38 7.2 45
10:30 1016 30 845 24.95 22.3 72.1 37 7.2 44.9
10:35 1016 30 845 24.95 22.7 72.8 36 6.9 44.5
10:40 1016 30 845 24.95 23.6 74.4 37 8 46.5
10:45 1016 30 845 24.95 24.1 75.3 32 6.5 43.7
10:50 1016 30 845 24.95 24.4 75.8 29 5.3 41.5
10:55 1016 30 845 24.95 24.8 76.6 28 5.5 42
11:00 1016 30 845 24.95 24.9 76.8 28 5.3 41.6
11:05 1016 30 845 24.95 24.8 76.6 28 5.3 41.6
11:10 1016 30 845 24.95 25.2 77.4 28 5.5 42
11:15 1016 30 845 24.95 25.2 77.4 29 5.9 42.7
11:20 1016 30 845 24.95 25 77.1 29 6.1 43.1
11:25 1015 29.97 845 24.95 24.9 76.7 30 6.4 43.6
11:30 1015 29.97 845 24.95 24.3 75.7 33 7.3 45.2
11:35 1015 29.97 845 24.95 23.1 73.7 33 6.3 43.3
11:40 1016 30 845 24.95 23.1 73.6 33 6.4 43.5
11:45 1016 30 845 24.95 23.3 74 31 5.5 41.9
11:50 1016 30 845 24.95 23.7 74.6 31 5.7 42.3
11:55 1016 30 845 24.95 24 75.3 30 5.6 42.1
12:00 1016 30 845 24.95 23.9 75 32 6.3 43.3
12:05 1016 30 845 24.95 23.6 74.4 32 6 42.8
12:10 1015 29.97 845 24.95 23.7 74.7 31 5.8 42.4
12:15 1015 29.97 845 24.95 23.9 75 29 5.1 41.3
12:20 1015 29.97 845 24.95 23.9 75 31 6 42.9
12:25 1015 29.97 845 24.95 24 75.2 31 6.2 43.2
12:30 1015 29.97 844 24.92 24.6 76.3 29 5.8 42.5
12:35 1015 29.97 844 24.92 25.4 77.8 29 6.4 43.5
12:40 1015 29.97 844 24.92 25.8 78.4 27 5.7 42.3
12:45 1015 29.97 844 24.92 26 78.9 28 6.4 43.5
12:50 1015 29.97 844 24.92 25.9 78.6 29 6.7 44.1
12:55 1015 29.97 844 24.92 25.9 78.5 28 6.4 43.5
13:00 1015 29.97 844 24.92 26.4 79.5 28 6.5 43.7
13:05 1015 29.97 844 24.92 26.4 79.5 25 5.2 41.4
13:10 1015 29.97 844 24.92 26.6 80 29 7.5 45.5
13:15 1015 29.97 844 24.92 25.8 78.4 31 7.4 45.4
13:20 1015 29.97 844 24.92 25.5 77.9 29 6.5 43.6
13:25 1015 29.97 844 24.92 25.7 78.3 28 6 42.7
13:30 1014 29.94 844 24.92 26 78.8 29 6.9 44.4
13:35 1014 29.94 844 24.92 26.2 79.1 26 5.7 42.2
13:40 1014 29.94 844 24.92 26.9 80.5 26 5.9 42.6
13:45 1014 29.94 844 24.92 27.1 80.9 26 6.4 43.5
13:50 1014 29.94 844 24.92 26.7 80 26 5.8 42.4
13:55 1014 29.94 844 24.92 26.5 79.7 28 6.8 44.3
14:00 1014 29.94 843 24.89 25.9 78.6 27 5.8 42.4
14:05 1014 29.94 843 24.89 26.7 80 26 5.8 42.4
14:10 1014 29.94 843 24.89 27.6 81.7 25 5.9 42.5
14:15 1014 29.94 843 24.89 27.1 80.7 26 6.3 43.4
14:20 1014 29.94 843 24.89 26.3 79.4 26 5.4 41.7
14:25 1014 29.94 843 24.89 26.5 79.7 26 5.5 41.9
14:30 1014 29.94 843 24.89 27.6 81.7 23 5.1 41.2
14:35 1014 29.94 843 24.89 27.6 81.7 24 5.5 41.9
14:40 1014 29.94 843 24.89 26.6 80 26 5.7 42.3
14:45 1014 29.94 843 24.89 27.5 81.5 24 5.3 41.5
14:50 1014 29.94 843 24.89 27.3 81.1 24 5.3 41.6
14:55 1014 29.94 843 24.89 27.1 80.8 23 4.7 40.5
15:00 1014 29.94 843 24.89 28.2 82.7 23 5.4 41.8
15:05 1014 29.94 843 24.89 27.9 82.2 24 5.8 42.5
15:10 1014 29.94 843 24.89 27.1 80.7 24 5.2 41.4
15:15 1014 29.94 843 24.89 27.1 80.8 25 5.6 42
15:20 1013 29.91 843 24.89 27.8 82.1 23 5.1 41.1
15:25 1013 29.91 843 24.89 28.1 82.6 24 5.8 42.5
15:30 1013 29.91 842 24.86 27.6 81.7 24 5.5 42
15:35 1013 29.91 842 24.86 26.3 79.4 25 4.8 40.7
15:40 1013 29.91 842 24.86 26.7 80 24 4.8 40.6
15:45 1013 29.91 842 24.86 27.1 80.8 25 5.6 42.2
15:50 1013 29.91 842 24.86 27.1 80.9 23 4.6 40.3
15:55 1013 29.91 842 24.86 27.1 80.8 25 5.7 42.2
16:00 1013 29.91 842 24.86 26.8 80.3 23 4.3 39.8
16:05 1013 29.91 842 24.86 26.9 80.5 25 5.5 42
16:10 1013 29.91 842 24.86 26.9 80.5 24 4.8 40.7
16:15 1013 29.91 842 24.86 26.7 80.1 24 5 41
16:20 1013 29.91 842 24.86 26.6 79.8 26 5.6 42.1
16:25 1013 29.91 842 24.86 26.5 79.8 26 5.6 42
16:30 1013 29.91 842 24.86 26.9 80.3 25 5.4 41.8
16:35 1013 29.91 842 24.86 26.5 79.7 27 6 42.9
16:40 1013 29.91 842 24.86 26.1 79 27 6.2 43.1
16:45 1013 29.91 842 24.86 25.4 77.7 30 6.6 43.9
16:50 1013 29.91 843 24.89 25.6 78.1 29 6.3 43.4
16:55 1013 29.91 843 24.89 25.5 77.9 31 7.2 45
17:00 1013 29.91 843 24.89 25.4 77.6 29 6.2 43.1
17:05 1014 29.94 843 24.89 25.3 77.6 29 6.5 43.7
17:10 1014 29.94 843 24.89 25 77 31 7.1 44.8
17:15 1014 29.94 843 24.89 24.7 76.5 29 5.6 42
17:20 1014 29.94 843 24.89 23.5 74.4 29 4.8 40.7
17:25 1014 29.94 843 24.89 23 73.3 28 3.6 38.5
17:30 1014 29.94 843 24.89 22.8 73.1 28 3.8 38.8
17:35 1014 29.94 843 24.89 22.7 72.8 29 3.9 39.1
17:40 1014 29.94 843 24.89 22.4 72.3 27 2.9 37.2
17:45 1014 29.94 843 24.89 22.1 71.7 29 3.6 38.4
17:50 1014 29.94 843 24.89 21.7 71.1 29 3.2 37.7
17:55 1014 29.94 843 24.89 21.2 70.2 31 3.7 38.7
18:00 1014 29.94 843 24.89 20.8 69.5 32 3.7 38.6
18:05 1014 29.94 843 24.89 20.8 69.4 31 3.3 38
18:10 1014 29.94 843 24.89 20.8 69.5 31 3.4 38.1
18:15 1014 29.94 843 24.89 20.9 69.6 32 3.7 38.6
18:20 1014 29.94 843 24.89 20.8 69.5 32 3.8 38.8
18:25 1014 29.94 843 24.89 20.9 69.5 33 4.1 39.4
18:30 1014 29.94 843 24.89 20.9 69.7 32 4 39.1
18:35 1014 29.94 843 24.89 21 69.8 33 4.2 39.6
18:40 1014 29.94 843 24.89 21.2 70.2 30 3.1 37.5
18:45 1014 29.94 843 24.89 21.5 70.7 29 2.9 37.3
18:50 1014 29.94 843 24.89 21.8 71.2 29 3.4 38.1
18:55 1014 29.94 843 24.89 22 71.5 29 3.5 38.3
19:00 1014 29.94 843 24.89 22.2 71.9 28 3.2 37.8
19:05 1014 29.94 843 24.89 22.1 71.8 29 3.6 38.6
19:10 1014 29.94 843 24.89 22.2 71.9 28 3.2 37.7
19:15 1014 29.94 843 24.89 22.1 71.8 31 4.2 39.5
19:20 1014 29.94 843 24.89 21.8 71.3 31 3.9 39.1
19:25 1014 29.94 843 24.89 21.7 71.1 31 4.1 39.3
19:30 1014 29.94 843 24.89 21.6 70.8 33 4.6 40.3
19:35 1014 29.94 843 24.89 21.1 70 37 6 42.8
19:40 1014 29.94 843 24.89 20.6 69 35 4.7 40.5
19:45 1014 29.94 843 24.89 20.7 69.2 34 4.3 39.7
19:50 1014 29.94 843 24.89 20.9 69.6 34 4.7 40.4
19:55 1014 29.94 843 24.89 21 69.8 31 3.6 38.5
20:00 1014 29.94 843 24.89 21.4 70.4 32 4 39.2
20:05 1014 29.94 843 24.89 21.2 70.1 35 5.4 41.7
20:10 1014 29.94 843 24.89 20.4 68.7 38 5.6 42.1
20:15 1014 29.94 843 24.89 19.8 67.7 40 5.9 42.6
20:20 1014 29.94 843 24.89 19.5 67.1 41 6.1 43
20:25 1014 29.94 843 24.89 19.2 66.5 43 6.3 43.4
20:30 1014 29.94 843 24.89 19 66.2 43 6.4 43.5
20:35 1014 29.94 843 24.89 18.9 66 43 6.2 43.1
20:40 1014 29.94 843 24.89 18.9 66 43 6.2 43.2
20:45 1014 29.94 843 24.89 18.9 65.9 43 6.2 43.2
20:50 1014 29.94 843 24.89 18.7 65.7 44 6.4 43.5
20:55 1014 29.94 843 24.89 18.6 65.5 44 6.4 43.4
21:00 1014 29.94 843 24.89 18.5 65.3 46 6.7 44.1
21:05 1014 29.94 843 24.89 18.3 65 47 6.9 44.4
21:10 1014 29.94 843 24.89 18.3 64.9 47 6.8 44.2
21:15 1014 29.94 844 24.92 18.3 65 46 6.7 44.1
21:20 1014 29.94 844 24.92 18.3 65 47 6.9 44.5
21:25 1014 29.94 844 24.92 18.3 64.9 47 6.9 44.3
21:30 1015 29.97 844 24.92 18.3 65 46 6.5 43.7
21:35 1015 29.97 844 24.92 18.5 65.3 45 6.3 43.4
21:40 1015 29.97 844 24.92 18.6 65.4 44 6.2 43.2
21:45 1015 29.97 844 24.92 18.6 65.4 45 6.5 43.6
21:50 1015 29.97 844 24.92 18.4 65.1 44 6.2 43.1
21:55 1015 29.97 844 24.92 18.3 64.9 48 7.1 44.7
22:00 1015 29.97 844 24.92 17.9 64.2 52 8.1 46.6
22:05 1015 29.97 844 24.92 17.8 64 51 7.7 45.9
22:10 1015 29.97 844 24.92 17.7 63.9 50 7.4 45.4
22:15 1015 29.97 845 24.95 17.4 63.4 52 7.5 45.5
22:20 1015 29.97 845 24.95 16.9 62.3 55 7.9 46.2
22:25 1015 29.97 845 24.95 16.3 61.4 57 7.8 46
22:30 1015 29.97 845 24.95 16.1 61 57 7.7 45.8
22:35 1015 29.97 845 24.95 16.2 61.1 56 7.4 45.3
22:40 1015 29.97 845 24.95 16.2 61.2 57 7.9 46.2
22:45 1015 29.97 845 24.95 16.5 61.8 53 6.9 44.5
22:50 1015 29.97 845 24.95 16.7 62 54 7.3 45.1
22:55 1015 29.97 845 24.95 16.5 61.6 54 7.2 45
23:00 1015 29.97 845 24.95 16.3 61.3 56 7.7 45.8
23:05 1015 29.97 845 24.95 15.9 60.6 57 7.4 45.4
23:10 1015 29.97 845 24.95 15.9 60.6 60 8.1 46.6
23:15 1015 29.97 845 24.95 15.7 60.2 58 7.5 45.5
23:20 1015 29.97 844 24.92 15.4 59.6 59 7.4 45.3
23:25 1015 29.97 844 24.92 15.4 59.8 57 7 44.7
23:30 1015 29.97 845 24.95 15.6 60.1 57 7.3 45.1
23:35 1015 29.97 845 24.95 15.6 60 56 6.9 44.4
23:40 1015 29.97 845 24.95 15.3 59.6 56 6.7 44.1
23:45 1015 29.97 845 24.95 15.2 59.3 55 6.3 43.3
23:50 1015 29.97 845 24.95 15.3 59.6 59 7.4 45.3
23:55 1016 30 845 24.95 15.4 59.7 56 6.7 44.1
24:00 1016 30 845 24.95 15.3 59.6 57 6.9 44.4